Kansas City, Missouri
Traffic Map
Current Weather Conditions
Kansas City, Missouri
Clear Haze
Clear
76°
Feels Like: 76°
Wind Chill: 76° Ceiling: Unl
Heat Index: 76° Visibility: 5mi
Dew Point: 64° Wind: 5mph
Humidity: 67% Direction: 130° (SE)
Pressure: 29.98in Gusts: 0mph
Raw Report DataKMKC 050354Z 13004KT 5SM HZ CLR 24/18 A2998 RMK AO2 SLP145 T02440178 $
Traffic Incident Summary
Active as of:
Severity:
Category:
InformationThere was an issue retrieving the traffic information for this location. Please try a different location or try again shortly.
Advertisements
Track Severe Weather on mobile